Time;durP1;ratioP1;P1;durP2;ratioP2;P2;SDS_P1;SDS_P2;PMS_P1;PMS_P2;Temp;Humidity;BMP_temperature;BMP_pressure;BME280_temperature;BME280_humidity;BME280_pressure;Samples;Min_cycle;Max_cycle;Signal;HPM_P1;HPM_P2
2023/06/02 00:01:02;;;;;;;16.27;15.07;;;14.20;99.90;;;;;;5060419;28;20423;-43
2023/06/02 00:03:31;;;;;;;14.97;13.87;;;14.10;99.90;;;;;;5060687;28;20411;-43
2023/06/02 00:05:59;;;;;;;15.13;14.10;;;14.10;99.90;;;;;;5060732;28;20435;-47
2023/06/02 00:08:25;;;;;;;14.77;13.67;;;14.10;99.90;;;;;;5060328;28;20426;-47
2023/06/02 00:10:51;;;;;;;16.10;14.80;;;14.10;99.90;;;;;;5042834;28;20436;-42
2023/06/02 00:13:17;;;;;;;15.03;13.93;;;14.00;99.90;;;;;;5060200;28;20427;-44
2023/06/02 00:15:43;;;;;;;15.63;14.20;;;14.00;99.90;;;;;;5060032;28;20214;-45
2023/06/02 00:18:09;;;;;;;14.87;13.90;;;13.90;99.90;;;;;;5060406;28;20311;-43
2023/06/02 00:20:34;;;;;;;15.47;14.23;;;13.90;99.90;;;;;;5060306;28;20538;-47
2023/06/02 00:23:01;;;;;;;15.30;14.20;;;13.90;99.90;;;;;;5060171;28;20459;-44
2023/06/02 00:25:28;;;;;;;15.27;14.27;;;13.80;99.90;;;;;;5060135;28;20189;-45
2023/06/02 00:27:53;;;;;;;15.10;14.20;;;13.80;99.90;;;;;;5059647;28;20580;-43
2023/06/02 00:30:19;;;;;;;16.43;15.10;;;13.80;99.90;;;;;;5060858;28;20520;-47
2023/06/02 00:32:45;;;;;;;14.83;13.83;;;13.70;99.90;;;;;;5060437;28;20193;-46
2023/06/02 00:35:10;;;;;;;15.50;14.40;;;13.70;99.90;;;;;;5058996;28;20247;-46
2023/06/02 00:37:36;;;;;;;16.23;14.90;;;13.70;99.90;;;;;;5042128;28;20793;-42
2023/06/02 00:40:02;;;;;;;15.30;14.20;;;13.60;99.90;;;;;;5060332;28;20223;-48
2023/06/02 00:42:28;;;;;;;15.27;14.30;;;13.60;99.90;;;;;;5060437;28;20682;-41
2023/06/02 00:44:54;;;;;;;16.23;14.73;;;13.60;99.90;;;;;;5042462;28;20427;-42
2023/06/02 00:47:19;;;;;;;14.60;13.60;;;13.50;99.90;;;;;;5060288;28;20193;-44
2023/06/02 00:49:45;;;;;;;14.47;13.53;;;13.50;99.90;;;;;;5059576;28;20888;-43
2023/06/02 00:52:13;;;;;;;15.33;14.23;;;13.50;99.90;;;;;;5060072;28;20239;-42
2023/06/02 00:54:39;;;;;;;15.27;14.03;;;13.40;99.90;;;;;;5060174;28;20778;-42
2023/06/02 00:57:06;;;;;;;15.20;14.20;;;13.40;99.90;;;;;;5060015;28;20812;-42
2023/06/02 00:59:32;;;;;;;15.77;14.77;;;13.30;99.90;;;;;;5059514;28;20458;-43
2023/06/02 01:01:57;;;;;;;17.20;16.10;;;13.30;99.90;;;;;;5062045;28;20497;-46
2023/06/02 01:04:23;;;;;;;15.77;14.77;;;13.20;99.90;;;;;;5064272;28;20185;-42
2023/06/02 01:06:50;;;;;;;15.67;14.47;;;13.20;99.90;;;;;;5064285;28;20193;-42
2023/06/02 01:09:16;;;;;;;16.07;14.83;;;13.20;99.90;;;;;;5063794;28;20200;-42
2023/06/02 01:11:47;;;;;;;15.43;14.43;;;13.20;99.90;;;;;;5064009;28;20427;-43
2023/06/02 01:14:13;;;;;;;15.47;14.40;;;13.10;99.90;;;;;;5063775;28;20470;-47
2023/06/02 01:16:40;;;;;;;15.23;14.13;;;13.00;99.90;;;;;;5063883;28;20438;-46
2023/06/02 01:19:13;;;;;;;15.57;14.47;;;13.00;99.90;;;;;;5064231;28;21003;-42
2023/06/02 01:21:40;;;;;;;16.10;14.70;;;13.00;99.90;;;;;;5063923;28;20427;-42
2023/06/02 01:24:06;;;;;;;14.73;13.83;;;13.00;99.90;;;;;;5063126;28;20470;-44
2023/06/02 01:26:34;;;;;;;15.30;14.27;;;12.90;99.90;;;;;;5063731;28;20422;-42
2023/06/02 01:29:03;;;;;;;15.23;14.23;;;12.90;99.90;;;;;;5063174;28;20200;-48
2023/06/02 01:31:47;;;;;;;15.00;13.80;;;12.80;99.90;;;;;;5063530;28;20427;-44
2023/06/02 01:34:35;;;;;;;14.90;14.00;;;12.80;99.90;;;;;;5063445;28;20533;-46
2023/06/02 01:37:03;;;;;;;16.00;14.80;;;12.70;99.90;;;;;;5063087;28;20463;-43
2023/06/02 01:39:29;;;;;;;15.23;14.20;;;12.70;99.90;;;;;;5063185;28;20415;-43
2023/06/02 01:41:56;;;;;;;14.83;13.83;;;12.70;99.90;;;;;;5063367;28;20438;-45
2023/06/02 01:44:23;;;;;;;14.87;13.87;;;12.70;99.90;;;;;;5063230;28;20773;-45
2023/06/02 01:46:48;;;;;;;15.27;14.27;;;12.60;99.90;;;;;;5063342;28;20423;-42
2023/06/02 01:49:15;;;;;;;14.70;13.80;;;12.50;99.90;;;;;;5063084;28;20944;-43
2023/06/02 01:51:42;;;;;;;15.43;14.40;;;12.50;99.90;;;;;;5062878;28;20271;-46
2023/06/02 01:54:08;;;;;;;14.83;13.83;;;12.50;99.90;;;;;;5063182;28;20459;-42
2023/06/02 01:56:33;;;;;;;15.20;14.00;;;12.40;99.90;;;;;;5063128;28;20434;-41
2023/06/02 01:59:00;;;;;;;15.13;13.97;;;12.40;99.90;;;;;;5062929;28;20185;-42
2023/06/02 02:01:27;;;;;;;15.10;14.00;;;12.40;99.90;;;;;;5062760;28;20177;-42
2023/06/02 02:03:53;;;;;;;14.90;13.90;;;12.40;99.90;;;;;;5062822;28;20513;-43
2023/06/02 02:06:24;;;;;;;14.60;13.60;;;12.40;99.90;;;;;;5063199;28;20411;-43
2023/06/02 02:08:50;;;;;;;14.87;14.07;;;12.30;99.90;;;;;;5063074;28;20416;-43
2023/06/02 02:11:16;;;;;;;15.27;14.27;;;12.30;99.90;;;;;;5063122;28;20458;-44
2023/06/02 02:13:41;;;;;;;15.20;14.20;;;12.30;99.90;;;;;;5062110;28;20427;-44
2023/06/02 02:16:07;;;;;;;15.90;14.80;;;12.30;99.90;;;;;;5062248;28;20593;-44
2023/06/02 02:18:32;;;;;;;15.10;14.10;;;12.20;99.90;;;;;;5062362;28;20195;-42
2023/06/02 02:20:58;;;;;;;15.70;14.47;;;12.20;99.90;;;;;;5062569;28;20256;-41
2023/06/02 02:23:24;;;;;;;15.03;13.83;;;12.20;99.90;;;;;;5062404;28;20381;-41
2023/06/02 02:25:49;;;;;;;14.10;13.10;;;12.20;99.90;;;;;;5062555;28;20629;-41
2023/06/02 02:28:15;;;;;;;14.10;13.00;;;12.20;99.90;;;;;;5062394;28;20276;-43
2023/06/02 02:30:40;;;;;;;15.80;14.43;;;12.20;99.90;;;;;;5062430;28;20193;-44
2023/06/02 02:33:06;;;;;;;15.10;14.00;;;12.10;99.90;;;;;;5062343;28;20193;-45
2023/06/02 02:35:32;;;;;;;15.33;14.33;;;12.10;99.90;;;;;;5062307;28;20213;-42
2023/06/02 02:37:57;;;;;;;16.10;14.90;;;12.00;99.90;;;;;;5062159;28;20191;-42
2023/06/02 02:40:23;;;;;;;15.40;14.40;;;12.00;99.90;;;;;;5062345;28;20173;-44
2023/06/02 02:42:48;;;;;;;15.10;14.10;;;11.90;99.90;;;;;;5062240;28;20185;-44
2023/06/02 02:45:14;;;;;;;16.10;14.80;;;11.90;99.90;;;;;;5062088;28;20185;-42
2023/06/02 02:47:40;;;;;;;16.00;14.90;;;11.90;99.90;;;;;;5060776;28;21135;-42
2023/06/02 02:50:05;;;;;;;16.00;14.90;;;11.90;99.90;;;;;;5062564;28;20196;-44
2023/06/02 02:52:32;;;;;;;15.30;14.23;;;11.90;99.90;;;;;;5061753;28;20184;-43
2023/06/02 02:54:57;;;;;;;15.27;14.27;;;12.00;99.90;;;;;;5062229;28;20205;-46
2023/06/02 02:57:23;;;;;;;15.73;14.47;;;12.00;99.90;;;;;;5061756;28;20433;-44
2023/06/02 02:59:49;;;;;;;15.20;14.07;;;12.00;99.90;;;;;;5061289;28;20650;-42
2023/06/02 03:02:15;;;;;;;14.57;13.57;;;12.00;99.90;;;;;;5061001;28;20208;-42
2023/06/02 03:04:41;;;;;;;15.30;14.20;;;12.10;99.90;;;;;;5061885;28;20446;-43
2023/06/02 03:07:06;;;;;;;13.97;13.13;;;12.10;99.90;;;;;;5062216;28;20615;-42
2023/06/02 03:09:32;;;;;;;14.90;13.90;;;12.20;99.90;;;;;;5062348;28;20431;-44
2023/06/02 03:11:58;;;;;;;16.20;14.90;;;12.20;99.90;;;;;;5062236;28;20285;-45
2023/06/02 03:14:26;;;;;;;15.40;14.20;;;12.20;99.90;;;;;;5061485;28;20294;-47
2023/06/02 03:16:52;;;;;;;14.83;13.73;;;12.20;99.90;;;;;;5060794;28;20220;-49
2023/06/02 03:19:18;;;;;;;15.40;14.27;;;12.30;99.90;;;;;;5061591;28;20476;-44
2023/06/02 03:21:44;;;;;;;15.17;14.07;;;12.30;99.90;;;;;;5061684;28;20431;-52
2023/06/02 03:24:15;;;;;;;14.83;13.73;;;12.20;99.90;;;;;;5060417;28;20722;-47
2023/06/02 03:26:41;;;;;;;15.50;14.30;;;12.20;99.90;;;;;;5060611;28;20526;-48
2023/06/02 03:29:08;;;;;;;16.07;14.73;;;12.20;99.90;;;;;;5061184;28;20462;-53
2023/06/02 03:31:34;;;;;;;15.03;13.93;;;12.20;99.90;;;;;;5060797;28;20438;-48
2023/06/02 03:34:00;;;;;;;14.73;13.63;;;12.20;99.90;;;;;;5060786;28;20439;-49
2023/06/02 03:36:26;;;;;;;14.67;13.77;;;12.20;99.90;;;;;;5061028;28;20921;-50
2023/06/02 03:38:51;;;;;;;14.73;13.73;;;12.20;99.90;;;;;;5061210;28;20431;-49
2023/06/02 03:41:17;;;;;;;14.50;13.50;;;12.20;99.90;;;;;;5060592;28;20196;-49
2023/06/02 03:43:43;;;;;;;14.43;13.40;;;12.20;99.90;;;;;;5061519;28;20181;-49
2023/06/02 03:46:08;;;;;;;14.67;13.67;;;12.30;99.90;;;;;;5042733;28;20635;-52
2023/06/02 03:48:34;;;;;;;15.20;14.10;;;12.30;99.90;;;;;;5042947;28;20197;-51
2023/06/02 03:51:00;;;;;;;13.50;12.70;;;12.30;99.90;;;;;;5061262;28;20299;-49
2023/06/02 03:53:25;;;;;;;15.23;14.03;;;12.30;99.90;;;;;;5060810;28;20510;-53
2023/06/02 03:55:51;;;;;;;13.53;12.63;;;12.30;99.90;;;;;;5060602;28;20251;-49
2023/06/02 03:58:17;;;;;;;15.03;13.93;;;12.40;99.90;;;;;;5060762;28;20188;-51
2023/06/02 04:00:44;;;;;;;15.00;13.80;;;12.50;99.90;;;;;;5060013;28;20581;-50
2023/06/02 04:03:11;;;;;;;13.63;12.43;;;12.50;99.90;;;;;;5060355;28;20185;-50
2023/06/02 04:05:37;;;;;;;14.10;13.20;;;12.60;99.90;;;;;;5060479;28;20442;-50
2023/06/02 04:08:02;;;;;;;13.67;12.67;;;12.60;99.90;;;;;;5060645;28;20423;-49
2023/06/02 04:10:30;;;;;;;13.80;12.70;;;12.50;99.90;;;;;;5060790;28;20600;-49
2023/06/02 04:12:56;;;;;;;14.00;13.00;;;12.50;99.90;;;;;;5060650;28;20196;-49
2023/06/02 04:15:21;;;;;;;14.47;13.40;;;12.50;99.90;;;;;;5060382;28;20821;-51
2023/06/02 04:17:47;;;;;;;14.00;12.83;;;12.50;99.90;;;;;;5059996;28;20478;-50
2023/06/02 04:20:13;;;;;;;14.33;13.23;;;12.50;99.90;;;;;;5059587;28;20204;-49
2023/06/02 04:22:38;;;;;;;13.10;12.10;;;12.40;99.90;;;;;;5048905;28;20698;-49
2023/06/02 04:25:05;;;;;;;14.00;13.10;;;12.50;99.90;;;;;;5059018;28;20286;-54
2023/06/02 04:27:30;;;;;;;14.40;13.27;;;12.50;99.90;;;;;;5059840;28;20177;-51
2023/06/02 04:29:56;;;;;;;14.67;13.57;;;12.50;99.90;;;;;;5059752;28;20444;-52
2023/06/02 04:32:22;;;;;;;13.40;12.50;;;12.60;99.90;;;;;;5060720;28;20532;-54
2023/06/02 04:34:50;;;;;;;14.47;13.50;;;12.60;99.90;;;;;;5041083;28;20469;-50
2023/06/02 04:37:16;;;;;;;16.60;15.13;;;12.80;99.90;;;;;;5041241;28;20197;-47
2023/06/02 04:39:46;;;;;;;14.47;13.40;;;12.80;99.90;;;;;;5059857;28;20489;-51
2023/06/02 04:42:21;;;;;;;15.10;13.70;;;12.80;99.90;;;;;;5060011;28;20181;-53
2023/06/02 04:44:48;;;;;;;14.63;13.70;;;12.80;99.90;;;;;;5059703;28;20435;-50
2023/06/02 04:47:14;;;;;;;15.17;13.97;;;12.90;99.90;;;;;;5059921;28;20474;-52
2023/06/02 04:49:40;;;;;;;15.10;14.07;;;12.90;99.90;;;;;;5060338;28;20421;-46
2023/06/02 04:52:09;;;;;;;15.37;14.17;;;12.90;99.90;;;;;;5060407;28;20419;-49
2023/06/02 04:54:35;;;;;;;14.73;13.43;;;12.90;99.90;;;;;;5060306;28;20473;-54
2023/06/02 04:57:05;;;;;;;14.57;13.50;;;13.00;99.90;;;;;;5060247;28;20647;-54
2023/06/02 04:59:33;;;;;;;15.30;13.83;;;13.00;99.90;;;;;;5059781;28;20821;-53
2023/06/02 05:02:02;;;;;;;14.17;13.17;;;13.00;99.90;;;;;;5059559;28;20496;-53
2023/06/02 05:04:27;;;;;;;15.03;13.83;;;12.90;99.90;;;;;;5060079;28;20489;-50
2023/06/02 05:06:53;;;;;;;14.80;13.80;;;13.00;99.90;;;;;;5042589;28;20423;-52
2023/06/02 05:09:19;;;;;;;13.57;12.47;;;13.10;99.90;;;;;;5060169;28;20260;-49
2023/06/02 05:11:44;;;;;;;14.97;13.80;;;13.00;99.90;;;;;;5060721;28;20322;-51
2023/06/02 05:14:10;;;;;;;14.33;13.40;;;13.00;99.90;;;;;;5060136;28;20189;-52
2023/06/02 05:16:36;;;;;;;13.17;12.30;;;13.10;99.90;;;;;;5059828;28;20185;-50
2023/06/02 05:19:05;;;;;;;14.47;13.40;;;13.10;99.90;;;;;;5059345;28;20550;-51
2023/06/02 05:21:31;;;;;;;15.27;13.73;;;13.20;99.90;;;;;;5059806;28;20963;-50
2023/06/02 05:23:58;;;;;;;13.57;12.57;;;13.10;99.90;;;;;;5060047;28;20471;-48
2023/06/02 05:26:23;;;;;;;14.80;13.80;;;13.20;99.90;;;;;;5058324;28;20431;-54
2023/06/02 05:28:50;;;;;;;14.67;13.70;;;13.30;99.90;;;;;;5059968;28;20416;-52
2023/06/02 05:31:16;;;;;;;14.90;13.70;;;13.30;99.90;;;;;;5059729;28;20407;-49
2023/06/02 05:33:42;;;;;;;15.03;13.13;;;13.40;99.90;;;;;;5059745;28;20786;-52
2023/06/02 05:36:07;;;;;;;14.87;13.77;;;13.50;99.90;;;;;;5041499;28;20458;-51
2023/06/02 05:38:33;;;;;;;15.07;13.63;;;13.60;99.90;;;;;;5059686;28;20280;-52
2023/06/02 05:40:58;;;;;;;14.53;13.20;;;13.70;99.90;;;;;;5057894;28;20701;-48
2023/06/02 05:43:24;;;;;;;14.43;13.30;;;13.70;99.90;;;;;;5058946;28;20197;-49
2023/06/02 05:45:49;;;;;;;15.20;13.90;;;13.80;99.90;;;;;;5059668;28;20627;-48
2023/06/02 05:48:15;;;;;;;14.33;13.23;;;13.80;99.90;;;;;;5060972;28;20311;-49
2023/06/02 05:50:42;;;;;;;15.17;13.73;;;13.90;99.90;;;;;;5063325;28;20185;-52
2023/06/02 05:53:07;;;;;;;15.17;13.97;;;14.00;99.90;;;;;;5063249;28;20196;-47
2023/06/02 05:55:33;;;;;;;14.97;13.67;;;14.10;99.90;;;;;;5063129;28;20451;-48
2023/06/02 05:57:59;;;;;;;14.93;13.80;;;14.20;99.90;;;;;;5063523;28;20185;-53
2023/06/02 06:00:25;;;;;;;14.37;13.20;;;14.30;99.90;;;;;;5062332;28;21279;-53
2023/06/02 06:02:51;;;;;;;14.97;13.57;;;14.40;99.90;;;;;;5062118;28;20443;-49
2023/06/02 06:05:16;;;;;;;15.57;14.37;;;14.40;99.90;;;;;;5061313;28;20500;-50
2023/06/02 06:07:42;;;;;;;15.50;14.20;;;14.30;99.90;;;;;;5062495;28;20185;-49
2023/06/02 06:10:08;;;;;;;14.80;13.70;;;14.30;99.90;;;;;;5063270;28;20211;-49
2023/06/02 06:12:34;;;;;;;15.10;14.10;;;14.30;99.90;;;;;;5061048;28;20189;-45
2023/06/02 06:15:00;;;;;;;14.20;13.30;;;14.40;99.90;;;;;;5061729;28;20459;-50
2023/06/02 06:17:25;;;;;;;15.50;14.30;;;14.40;99.90;;;;;;5062375;28;20185;-50
2023/06/02 06:19:51;;;;;;;15.90;14.50;;;14.50;99.90;;;;;;5062459;28;20226;-51
2023/06/02 06:22:16;;;;;;;15.13;14.10;;;14.50;99.90;;;;;;5062363;28;20188;-45
2023/06/02 06:24:42;;;;;;;15.30;14.30;;;14.40;99.90;;;;;;5061764;28;20225;-53
2023/06/02 06:27:07;;;;;;;15.63;14.30;;;14.40;99.90;;;;;;5061903;28;20194;-50
2023/06/02 06:29:33;;;;;;;15.07;14.00;;;14.50;99.90;;;;;;5062713;28;20188;-51
2023/06/02 06:31:59;;;;;;;14.13;13.33;;;14.40;99.90;;;;;;5061915;28;20799;-48
2023/06/02 06:34:25;;;;;;;13.73;12.80;;;14.50;99.90;;;;;;5062458;28;20284;-53
2023/06/02 06:36:51;;;;;;;14.70;13.63;;;14.60;99.90;;;;;;5061908;28;20411;-51
2023/06/02 06:39:17;;;;;;;15.17;14.07;;;14.80;99.90;;;;;;5043991;28;20181;-53
2023/06/02 06:41:42;;;;;;;15.47;14.00;;;15.00;99.90;;;;;;5062051;28;20411;-52
2023/06/02 06:44:08;;;;;;;15.17;14.00;;;15.20;99.80;;;;;;5060904;28;20177;-46
2023/06/02 06:46:34;;;;;;;15.57;14.23;;;15.40;99.20;;;;;;5061649;28;20189;-42
2023/06/02 06:49:00;;;;;;;15.87;14.27;;;15.50;98.80;;;;;;5061880;28;20178;-44
2023/06/02 06:51:26;;;;;;;16.60;15.30;;;15.50;98.20;;;;;;5061079;28;20216;-45
2023/06/02 06:53:52;;;;;;;14.77;13.67;;;15.50;98.00;;;;;;5060733;28;20435;-45
2023/06/02 06:56:18;;;;;;;14.97;13.77;;;15.50;98.20;;;;;;5061106;28;20212;-44
2023/06/02 06:58:43;;;;;;;15.20;14.10;;;15.70;98.40;;;;;;5061983;28;20986;-42
2023/06/02 07:01:10;;;;;;;14.03;12.93;;;15.80;97.60;;;;;;5060579;28;20197;-46
2023/06/02 07:03:36;;;;;;;15.53;14.20;;;15.90;97.20;;;;;;5060905;28;20193;-43
2023/06/02 07:06:01;;;;;;;15.90;14.60;;;15.90;97.10;;;;;;5061644;28;20423;-41
2023/06/02 07:08:29;;;;;;;14.80;13.70;;;16.00;96.70;;;;;;5059841;28;20279;-48
2023/06/02 07:10:55;;;;;;;15.13;14.07;;;16.00;96.70;;;;;;5059709;28;20195;-46
2023/06/02 07:13:21;;;;;;;14.70;13.40;;;16.10;96.50;;;;;;5061170;28;20423;-45
2023/06/02 07:15:47;;;;;;;14.87;13.87;;;16.10;96.60;;;;;;5060643;28;20241;-48
2023/06/02 07:18:12;;;;;;;16.00;14.73;;;16.30;96.00;;;;;;5060401;28;20181;-45
2023/06/02 07:20:38;;;;;;;15.43;14.20;;;16.40;95.40;;;;;;5060652;28;20908;-44
2023/06/02 07:23:04;;;;;;;16.47;15.30;;;16.20;95.30;;;;;;5060838;28;20228;-45
2023/06/02 07:25:29;;;;;;;15.00;13.60;;;16.10;95.40;;;;;;5060466;28;20315;-43
2023/06/02 07:27:55;;;;;;;16.60;15.47;;;16.10;95.60;;;;;;5058785;28;20181;-45
2023/06/02 07:30:21;;;;;;;15.87;14.80;;;15.90;95.70;;;;;;5057306;28;20200;-42
2023/06/02 07:32:46;;;;;;;15.60;14.50;;;16.00;96.20;;;;;;5059548;28;20220;-46
2023/06/02 07:35:12;;;;;;;16.00;14.50;;;16.00;96.10;;;;;;5059527;28;20447;-44
2023/06/02 07:37:38;;;;;;;16.80;15.40;;;16.10;95.70;;;;;;5059327;28;20192;-51
2023/06/02 07:40:04;;;;;;;16.67;15.10;;;16.20;96.30;;;;;;5059662;28;20226;-41
2023/06/02 07:42:29;;;;;;;16.47;15.03;;;16.30;95.80;;;;;;5060288;28;20212;-44
2023/06/02 07:44:55;;;;;;;17.00;15.60;;;16.30;95.10;;;;;;5059214;28;20446;-44
2023/06/02 07:47:22;;;;;;;16.67;15.57;;;16.40;94.90;;;;;;5060146;28;20306;-42
2023/06/02 07:49:48;;;;;;;16.90;15.50;;;16.50;95.20;;;;;;5060421;28;20188;-41
2023/06/02 07:52:13;;;;;;;16.70;15.30;;;16.70;94.40;;;;;;5059121;28;20431;-44
2023/06/02 07:54:40;;;;;;;16.50;15.10;;;16.80;94.20;;;;;;5060670;28;20267;-46
2023/06/02 07:57:06;;;;;;;16.27;15.13;;;16.80;93.80;;;;;;5060899;28;20442;-46
2023/06/02 07:59:31;;;;;;;16.57;15.13;;;16.60;94.30;;;;;;5060677;28;20422;-45
2023/06/02 08:01:57;;;;;;;16.10;14.80;;;16.40;94.40;;;;;;5060746;28;20189;-43
2023/06/02 08:04:25;;;;;;;16.40;15.20;;;16.30;94.80;;;;;;5060988;28;21278;-43
2023/06/02 08:06:54;;;;;;;15.00;14.00;;;16.50;94.50;;;;;;5060507;28;20185;-41
2023/06/02 08:09:20;;;;;;;14.90;13.80;;;16.70;94.10;;;;;;5059929;28;20932;-43
2023/06/02 08:11:48;;;;;;;16.20;14.50;;;16.80;94.00;;;;;;5059696;28;20423;-47
2023/06/02 08:14:14;;;;;;;15.77;14.30;;;17.00;94.00;;;;;;5059093;28;20246;-46
2023/06/02 08:16:41;;;;;;;14.87;13.63;;;17.20;94.10;;;;;;5060435;28;20424;-43
2023/06/02 08:19:07;;;;;;;16.73;15.40;;;17.40;93.00;;;;;;5059311;28;20173;-45
2023/06/02 08:21:33;;;;;;;16.83;15.23;;;17.60;92.60;;;;;;5060311;28;20472;-45
2023/06/02 08:24:00;;;;;;;14.67;13.37;;;17.50;92.10;;;;;;5059844;28;20478;-43
2023/06/02 08:26:26;;;;;;;16.07;14.73;;;17.70;92.10;;;;;;5059395;28;20214;-45
2023/06/02 08:28:53;;;;;;;14.93;13.83;;;17.90;92.10;;;;;;5059895;28;21175;-45
2023/06/02 08:31:22;;;;;;;15.50;14.30;;;18.10;91.60;;;;;;5060112;28;20438;-45
2023/06/02 08:33:52;;;;;;;15.20;14.20;;;18.30;90.30;;;;;;5059035;28;20428;-44
2023/06/02 08:36:20;;;;;;;14.50;13.40;;;17.90;90.40;;;;;;5042099;28;20923;-48
2023/06/02 08:38:47;;;;;;;14.67;13.60;;;18.30;90.50;;;;;;5059384;28;20431;-46
2023/06/02 08:41:13;;;;;;;15.70;14.53;;;18.50;90.80;;;;;;5059990;28;20415;-42
2023/06/02 08:43:40;;;;;;;14.20;13.20;;;18.50;88.90;;;;;;5060239;28;20400;-45
2023/06/02 08:46:11;;;;;;;14.60;13.60;;;18.60;90.00;;;;;;5059107;28;20454;-45
2023/06/02 08:48:39;;;;;;;15.90;14.70;;;18.90;89.30;;;;;;5059794;28;20469;-43
2023/06/02 08:51:09;;;;;;;15.03;13.83;;;19.20;86.70;;;;;;5060014;28;20542;-44
2023/06/02 08:53:36;;;;;;;15.03;13.70;;;19.60;86.20;;;;;;5059504;28;20702;-47
2023/06/02 08:56:04;;;;;;;15.37;14.17;;;19.50;82.50;;;;;;5059021;28;20463;-48
2023/06/02 08:58:30;;;;;;;15.20;14.00;;;19.40;82.70;;;;;;5058292;28;20427;-47
2023/06/02 09:00:56;;;;;;;14.40;13.30;;;19.20;83.40;;;;;;5059169;28;20430;-47
2023/06/02 09:03:22;;;;;;;15.50;14.40;;;19.40;82.90;;;;;;5059149;28;20409;-45
2023/06/02 09:05:47;;;;;;;14.87;13.80;;;19.40;81.50;;;;;;5059065;28;20636;-42
2023/06/02 09:08:14;;;;;;;14.17;12.53;;;19.20;82.00;;;;;;5058111;28;20956;-43
2023/06/02 09:10:41;;;;;;;14.73;13.43;;;19.20;83.70;;;;;;5058472;28;20177;-46
2023/06/02 09:13:27;;;;;;;15.03;14.03;;;19.50;82.60;;;;;;5059779;28;20428;-45
2023/06/02 09:15:59;;;;;;;14.03;12.60;;;19.50;81.10;;;;;;5059327;28;21011;-44
2023/06/02 09:18:26;;;;;;;14.90;13.70;;;19.80;79.10;;;;;;5057016;28;20416;-42
2023/06/02 09:20:52;;;;;;;13.57;12.47;;;20.20;78.30;;;;;;5059314;28;20420;-43
2023/06/02 09:23:18;;;;;;;13.30;12.30;;;20.60;76.20;;;;;;5060908;28;20454;-42
2023/06/02 09:25:45;;;;;;;14.80;13.03;;;20.90;74.80;;;;;;5063068;28;20820;-44
2023/06/02 09:28:11;;;;;;;12.90;12.10;;;21.20;71.70;;;;;;5062112;28;20254;-42
2023/06/02 09:30:37;;;;;;;13.00;12.20;;;21.30;69.20;;;;;;5059489;28;21194;-43
2023/06/02 09:33:14;;;;;;;14.40;13.10;;;21.40;68.70;;;;;;5062162;28;20427;-47
2023/06/02 09:35:45;;;;;;;13.13;12.13;;;21.40;68.90;;;;;;5059820;28;20200;-43
2023/06/02 09:38:15;;;;;;;13.20;12.30;;;21.50;66.70;;;;;;5063019;28;20422;-48
2023/06/02 09:40:42;;;;;;;12.13;11.37;;;21.50;66.50;;;;;;5063296;28;20412;-43
2023/06/02 09:43:10;;;;;;;13.73;12.60;;;21.40;63.60;;;;;;5062483;28;20488;-46
2023/06/02 09:45:47;;;;;;;13.07;12.27;;;21.10;64.40;;;;;;5059333;28;20476;-45
2023/06/02 09:48:22;;;;;;;12.33;11.50;;;21.40;64.20;;;;;;5059587;28;21172;-42
2023/06/02 09:50:48;;;;;;;13.40;12.33;;;21.30;64.10;;;;;;5061869;28;21381;-42
2023/06/02 09:53:17;;;;;;;12.63;11.83;;;21.60;63.00;;;;;;5059936;28;20415;-42
2023/06/02 09:55:44;;;;;;;13.00;12.20;;;22.30;61.90;;;;;;5044882;28;20446;-46
2023/06/02 09:58:10;;;;;;;13.80;12.63;;;22.90;59.90;;;;;;5063140;28;20477;-44
2023/06/02 10:00:36;;;;;;;11.37;10.43;;;22.90;58.20;;;;;;5062828;28;20415;-50
2023/06/02 10:03:02;;;;;;;12.37;11.43;;;22.80;56.50;;;;;;5061195;28;20427;-45
2023/06/02 10:05:28;;;;;;;12.90;11.80;;;22.50;56.20;;;;;;5056405;28;20522;-44
2023/06/02 10:08:09;;;;;;;12.70;11.73;;;21.80;56.80;;;;;;5060776;28;21031;-44
2023/06/02 10:10:44;;;;;;;12.77;11.77;;;21.70;58.90;;;;;;5060580;28;20488;-47
2023/06/02 10:13:29;;;;;;;12.47;11.70;;;21.70;59.90;;;;;;5060584;28;20464;-45
2023/06/02 10:16:00;;;;;;;11.87;11.17;;;21.80;59.00;;;;;;5062288;28;20508;-44
2023/06/02 10:19:03;;;;;;;13.20;12.30;;;22.30;59.40;;;;;;5061722;28;20504;-44
2023/06/02 10:21:46;;;;;;;13.27;11.60;;;22.80;56.30;;;;;;5062506;28;20419;-42
2023/06/02 10:24:14;;;;;;;12.30;11.47;;;23.50;54.20;;;;;;5062703;28;20902;-46
2023/06/02 10:27:11;;;;;;;12.70;11.70;;;23.90;54.20;;;;;;5044314;28;20431;-45
2023/06/02 10:29:38;;;;;;;13.47;11.77;;;23.80;51.90;;;;;;5062746;28;20418;-45
2023/06/02 10:32:27;;;;;;;13.20;12.30;;;23.40;52.00;;;;;;5063076;28;20769;-44
2023/06/02 10:34:54;;;;;;;13.10;12.20;;;22.80;52.60;;;;;;5061420;28;20935;-50
2023/06/02 10:37:21;;;;;;;12.07;11.47;;;22.10;54.50;;;;;;5061084;28;21303;-48
2023/06/02 10:39:51;;;;;;;12.50;11.50;;;22.20;55.10;;;;;;5061128;28;20434;-45
2023/06/02 10:42:18;;;;;;;10.97;10.37;;;22.20;55.60;;;;;;5061366;28;20403;-43
2023/06/02 10:44:47;;;;;;;12.40;11.40;;;22.10;55.80;;;;;;5061451;28;20435;-45
2023/06/02 10:47:18;;;;;;;12.67;11.87;;;22.00;55.70;;;;;;5061332;28;20859;-46
2023/06/02 10:49:54;;;;;;;13.43;12.27;;;21.80;54.60;;;;;;5060292;28;20482;-44
2023/06/02 10:52:21;;;;;;;12.43;11.63;;;21.60;55.30;;;;;;5061743;28;20958;-46
2023/06/02 10:55:11;;;;;;;12.63;11.93;;;21.50;55.20;;;;;;5061913;28;20470;-41
2023/06/02 10:58:03;;;;;;;12.93;12.03;;;21.40;55.10;;;;;;5062158;28;20415;-44
2023/06/02 11:03:05;;;;;;;10.80;10.20;;;21.70;56.30;;;;;;5061769;28;20408;-43
2023/06/02 11:05:32;;;;;;;12.40;11.50;;;22.00;55.70;;;;;;5061907;28;20415;-50
2023/06/02 11:08:12;;;;;;;11.67;10.63;;;22.80;53.30;;;;;;5062049;28;20846;-43
2023/06/02 11:10:46;;;;;;;13.13;12.23;;;23.20;51.20;;;;;;5062567;28;20426;-46
2023/06/02 11:13:13;;;;;;;11.27;10.67;;;23.70;50.10;;;;;;5061077;28;20493;-46
2023/06/02 11:15:58;;;;;;;12.77;11.87;;;24.00;49.80;;;;;;5061324;28;20463;-44
2023/06/02 11:18:31;;;;;;;11.63;10.93;;;24.00;49.30;;;;;;5060801;28;20455;-42
2023/06/02 11:21:18;;;;;;;12.40;11.50;;;24.20;47.80;;;;;;5061408;28;20419;-43
2023/06/02 11:23:45;;;;;;;11.97;11.30;;;24.90;48.80;;;;;;5060268;28;20466;-44
2023/06/02 11:26:15;;;;;;;11.87;11.17;;;25.40;46.40;;;;;;5060635;28;20450;-42
2023/06/02 11:28:41;;;;;;;11.93;11.20;;;26.00;45.00;;;;;;5061165;28;20971;-48
2023/06/02 11:31:08;;;;;;;12.10;11.40;;;26.10;43.60;;;;;;5061117;28;20420;-43
2023/06/02 11:33:36;;;;;;;11.70;11.00;;;25.80;43.40;;;;;;5061143;28;20561;-43
2023/06/02 11:36:03;;;;;;;12.43;11.53;;;25.10;43.30;;;;;;5060778;28;20557;-47
2023/06/02 11:38:32;;;;;;;11.97;11.07;;;24.30;44.70;;;;;;5060487;28;20423;-42
2023/06/02 11:41:12;;;;;;;12.90;11.63;;;23.80;44.90;;;;;;5060377;28;20419;-43
2023/06/02 11:43:39;;;;;;;11.87;11.10;;;23.10;46.50;;;;;;5059949;28;20513;-45
2023/06/02 11:46:11;;;;;;;13.00;12.10;;;22.50;47.40;;;;;;5058579;28;20427;-46
2023/06/02 11:48:39;;;;;;;11.90;11.30;;;21.90;49.00;;;;;;5059606;28;20479;-45
2023/06/02 11:51:07;;;;;;;12.77;12.03;;;21.60;50.20;;;;;;5060034;28;21111;-43
2023/06/02 11:53:44;;;;;;;12.30;11.30;;;21.20;51.10;;;;;;5059785;28;20423;-44
2023/06/02 11:56:10;;;;;;;12.27;11.47;;;21.00;51.90;;;;;;5059521;28;20895;-42
2023/06/02 11:58:46;;;;;;;12.37;11.60;;;20.80;53.10;;;;;;5059299;28;20518;-44
2023/06/02 12:01:21;;;;;;;13.03;12.23;;;20.70;53.30;;;;;;5060617;28;20429;-44
2023/06/02 12:04:04;;;;;;;13.07;12.23;;;20.60;52.90;;;;;;5060616;28;20430;-43
2023/06/02 12:06:31;;;;;;;12.40;11.57;;;20.50;53.00;;;;;;5060606;28;20901;-43
2023/06/02 12:09:11;;;;;;;12.37;11.67;;;20.50;54.00;;;;;;5060300;28;20423;-42
2023/06/02 12:11:38;;;;;;;11.73;11.00;;;20.50;53.60;;;;;;5058619;28;20431;-44
2023/06/02 12:14:06;;;;;;;13.43;12.33;;;20.60;53.40;;;;;;5060427;28;20412;-43
2023/06/02 12:16:34;;;;;;;11.97;11.37;;;20.60;53.80;;;;;;5060065;28;20974;-44
2023/06/02 12:19:22;;;;;;;12.60;11.90;;;20.60;53.90;;;;;;5060741;28;20440;-43
2023/06/02 12:21:51;;;;;;;12.30;11.50;;;20.80;54.60;;;;;;5060147;28;20416;-42
2023/06/02 12:24:38;;;;;;;12.63;11.83;;;20.80;54.90;;;;;;5060279;28;20467;-44
2023/06/02 12:27:05;;;;;;;13.93;13.00;;;20.50;55.70;;;;;;5059422;28;20436;-48
2023/06/02 12:29:31;;;;;;;12.80;11.90;;;20.20;56.60;;;;;;5058031;28;20435;-50
2023/06/02 12:32:02;;;;;;;13.57;12.47;;;20.10;57.80;;;;;;5058380;28;21360;-49
2023/06/02 12:34:28;;;;;;;12.17;11.37;;;20.00;58.40;;;;;;5057366;28;20185;-45